Portada
METAR-TAF:

METAR-TAF

Aeropuertos :

Aeropuerto de Auburn-Opelika Robert G. Pitts

Auburn, Alabama, Estados Unidos

latitud: 32-37N, longitud: 085-26W, altitud: 236 m

Observación

El informe se hizo hace 46 minutos, a las 22:56 UTC
Viento 8 kt del oeste-suroeste
Temperatura 12°C
Humedad 58%
Presión 1015 hPa
Visibilidad: 16.1 km
Cielo despejado

METAR: KAUO 242256Z AUTO 25008KT 10SM CLR 12/04 A2997 RMK AO2 SLP175 T01220044

Hora: 17:42 (23:42 UTC)


TAF: falta

Observaciones y pronósticos meteorológicos de más de 4000 aeropuertos (mensajes METAR y TAF).

Los puntos amarillos y rojos representan las estaciones disponibles.

Ponga el ratón en el punto deseado para ver el nombre de la estación.

Haga clic para ver las observaciones y los pronósticos meteorológicos.

Para cambiar el mapa : haga clic en los botones verdes con una cruz de color negro para hacer un zoom, en el botón verde con un guión para alejar o en las flechas verdes para mapas adyacentes.


METAR-TAF: